Time;durP1;ratioP1;P1;durP2;ratioP2;P2;SDS_P1;SDS_P2;PMS_P1;PMS_P2;Temp;Humidity;BMP_temperature;BMP_pressure;BME280_temperature;BME280_humidity;BME280_pressure;Samples;Min_cycle;Max_cycle;Signal;HPM_P1;HPM_P2
2021/05/24 00:00:24;;;;;;;4.13;1.30;;;12.30;99.90;;;;;;5131604;27;21138;-72
2021/05/24 00:02:51;;;;;;;1.43;1.00;;;12.30;99.90;;;;;;5130609;27;20540;-72
2021/05/24 00:05:19;;;;;;;3.67;1.30;;;12.40;99.90;;;;;;5132694;27;20567;-72
2021/05/24 00:07:46;;;;;;;3.73;1.83;;;12.40;99.90;;;;;;5130819;27;20456;-71
2021/05/24 00:10:15;;;;;;;1.73;1.00;;;12.40;99.90;;;;;;5127295;27;20462;-72
2021/05/24 00:12:46;;;;;;;1.53;0.80;;;12.30;99.90;;;;;;5126297;27;21201;-71
2021/05/24 00:15:16;;;;;;;2.40;0.90;;;12.30;99.90;;;;;;5127778;27;20576;-72
2021/05/24 00:17:42;;;;;;;4.87;1.70;;;12.40;99.90;;;;;;5131762;27;20456;-72
2021/05/24 00:20:11;;;;;;;1.10;0.90;;;12.30;99.90;;;;;;5133856;27;20455;-72
2021/05/24 00:22:38;;;;;;;1.20;1.00;;;12.30;99.90;;;;;;5128097;27;20493;-72
2021/05/24 00:25:06;;;;;;;1.83;1.10;;;12.30;99.90;;;;;;5129373;27;20855;-73
2021/05/24 00:27:33;;;;;;;1.20;0.93;;;12.40;99.90;;;;;;5132536;27;20548;-73
2021/05/24 00:29:59;;;;;;;2.10;1.50;;;12.30;99.90;;;;;;5126415;27;20503;-71
2021/05/24 00:32:27;;;;;;;2.13;1.30;;;12.40;99.90;;;;;;5130874;27;20515;-72
2021/05/24 00:34:53;;;;;;;2.70;1.00;;;12.40;99.90;;;;;;5130018;27;20475;-72
2021/05/24 00:37:20;;;;;;;4.40;1.80;;;12.40;99.90;;;;;;5132057;27;20542;-73
2021/05/24 00:39:46;;;;;;;1.93;1.20;;;12.40;99.90;;;;;;5122830;27;20554;-73
2021/05/24 00:42:12;;;;;;;1.07;0.90;;;12.40;99.90;;;;;;5124242;27;20460;-72
2021/05/24 00:44:39;;;;;;;2.80;1.63;;;12.50;99.90;;;;;;5125668;27;20572;-73
2021/05/24 00:47:06;;;;;;;2.63;1.30;;;12.40;99.90;;;;;;5121006;27;20491;-72
2021/05/24 00:49:33;;;;;;;2.90;1.10;;;12.40;99.90;;;;;;5127174;27;20469;-72
2021/05/24 00:51:59;;;;;;;11.33;1.10;;;12.30;99.90;;;;;;5121162;27;20449;-72
2021/05/24 00:54:27;;;;;;;2.50;1.07;;;12.40;99.90;;;;;;5127780;27;20587;-72
2021/05/24 00:56:57;;;;;;;3.00;1.53;;;12.30;99.90;;;;;;5121926;27;20452;-72
2021/05/24 00:59:24;;;;;;;1.57;1.00;;;12.30;99.90;;;;;;5122793;27;20546;-73
2021/05/24 01:01:50;;;;;;;1.70;1.30;;;12.40;99.90;;;;;;5123215;27;20447;-73
2021/05/24 01:04:19;;;;;;;2.13;1.60;;;12.40;99.90;;;;;;5122906;27;20506;-71
2021/05/24 01:06:47;;;;;;;1.50;1.10;;;12.30;99.90;;;;;;5119303;27;21059;-72
2021/05/24 01:09:15;;;;;;;1.30;1.00;;;12.30;99.90;;;;;;5123735;27;20466;-71
2021/05/24 01:11:42;;;;;;;3.00;1.10;;;12.30;99.90;;;;;;5123407;27;20532;-71
2021/05/24 01:14:08;;;;;;;2.13;1.10;;;12.30;99.90;;;;;;5126811;27;21111;-72
2021/05/24 01:16:35;;;;;;;1.37;1.00;;;12.30;99.90;;;;;;5125185;27;20534;-72
2021/05/24 01:19:02;;;;;;;3.00;1.73;;;12.30;99.90;;;;;;5124985;27;20968;-73
2021/05/24 01:21:29;;;;;;;1.03;0.90;;;12.20;99.90;;;;;;5126064;27;21183;-72
2021/05/24 01:23:56;;;;;;;3.37;1.73;;;12.40;99.90;;;;;;5122900;27;20497;-73
2021/05/24 01:26:23;;;;;;;1.20;1.00;;;12.30;99.90;;;;;;5123939;27;20490;-73
2021/05/24 01:28:49;;;;;;;1.10;0.80;;;12.50;99.90;;;;;;5119550;27;20459;-72
2021/05/24 01:31:16;;;;;;;1.20;0.90;;;12.40;99.90;;;;;;5125666;27;20542;-73
2021/05/24 01:33:43;;;;;;;4.70;1.03;;;12.40;99.90;;;;;;5120115;27;20488;-73
2021/05/24 01:36:11;;;;;;;1.10;0.90;;;12.40;99.90;;;;;;5123738;27;20456;-72
2021/05/24 01:38:42;;;;;;;2.30;1.40;;;12.40;99.90;;;;;;5126710;27;20580;-71
2021/05/24 01:41:10;;;;;;;4.00;1.07;;;12.60;99.90;;;;;;5126273;27;20468;-72
2021/05/24 01:43:37;;;;;;;1.23;1.00;;;12.60;99.90;;;;;;5122932;27;20487;-71
2021/05/24 01:46:04;;;;;;;1.20;0.90;;;12.70;99.90;;;;;;5120313;27;20463;-72
2021/05/24 01:48:31;;;;;;;1.20;0.90;;;12.80;99.90;;;;;;5123578;27;20467;-72
2021/05/24 01:50:58;;;;;;;1.10;0.97;;;12.90;99.90;;;;;;5123406;27;20835;-71
2021/05/24 01:53:24;;;;;;;2.07;1.30;;;12.80;99.90;;;;;;5124832;27;21310;-72
2021/05/24 01:55:52;;;;;;;1.20;0.90;;;12.90;99.90;;;;;;5125038;27;21010;-72
2021/05/24 01:58:19;;;;;;;1.50;0.90;;;12.80;99.90;;;;;;5125438;27;20929;-71
2021/05/24 02:00:46;;;;;;;1.00;0.80;;;12.80;99.90;;;;;;5129384;27;20486;-73
2021/05/24 02:03:13;;;;;;;1.40;0.97;;;12.90;99.90;;;;;;5120983;27;20501;-72
2021/05/24 02:05:39;;;;;;;1.70;1.07;;;12.90;99.90;;;;;;5123642;27;20508;-72
2021/05/24 02:08:07;;;;;;;1.57;1.20;;;12.90;99.90;;;;;;5127725;27;20497;-71
2021/05/24 02:10:35;;;;;;;3.43;2.17;;;12.90;99.90;;;;;;5124444;27;20978;-71
2021/05/24 02:13:04;;;;;;;1.50;0.90;;;12.80;99.90;;;;;;5121678;27;20459;-71
2021/05/24 02:15:32;;;;;;;2.83;1.20;;;12.70;99.90;;;;;;5129278;27;20483;-72
2021/05/24 02:17:59;;;;;;;1.30;1.07;;;12.80;99.90;;;;;;5127242;27;20888;-72
2021/05/24 02:20:27;;;;;;;3.37;1.00;;;12.90;99.90;;;;;;5132176;27;20478;-73
2021/05/24 02:22:55;;;;;;;1.40;1.10;;;12.80;99.90;;;;;;5128307;27;20446;-72
2021/05/24 02:25:23;;;;;;;1.27;0.90;;;12.80;99.90;;;;;;5134689;27;20570;-72
2021/05/24 02:27:49;;;;;;;1.27;1.17;;;12.70;99.90;;;;;;5135110;27;20903;-72
2021/05/24 02:30:20;;;;;;;1.57;1.20;;;12.70;99.90;;;;;;5130083;27;21134;-73
2021/05/24 02:32:47;;;;;;;1.10;0.80;;;12.70;99.90;;;;;;5124590;27;20479;-73
2021/05/24 02:35:16;;;;;;;6.10;1.33;;;12.60;99.90;;;;;;5132074;27;21018;-72
2021/05/24 02:37:43;;;;;;;1.23;1.10;;;12.60;99.90;;;;;;5132650;27;20567;-72
2021/05/24 02:40:12;;;;;;;1.97;1.50;;;12.70;99.90;;;;;;5134582;27;20459;-72
2021/05/24 02:42:39;;;;;;;1.43;1.27;;;12.60;99.90;;;;;;5128116;27;21018;-72
2021/05/24 02:45:07;;;;;;;1.40;0.90;;;12.60;99.90;;;;;;5132099;27;20503;-73
2021/05/24 02:47:35;;;;;;;2.33;1.30;;;12.70;99.90;;;;;;5128266;27;20582;-73
2021/05/24 02:50:03;;;;;;;1.00;0.80;;;12.70;99.90;;;;;;5131432;27;20478;-72
2021/05/24 02:52:29;;;;;;;1.47;0.90;;;12.50;99.90;;;;;;5129841;27;20629;-72
2021/05/24 02:54:56;;;;;;;1.47;1.10;;;12.40;99.90;;;;;;5135892;27;20474;-72
2021/05/24 02:57:22;;;;;;;5.30;1.20;;;12.50;99.90;;;;;;5128720;27;20493;-72
2021/05/24 02:59:48;;;;;;;2.13;0.93;;;12.50;99.90;;;;;;5130398;27;20554;-70
2021/05/24 03:02:22;;;;;;;1.00;0.80;;;12.50;99.90;;;;;;5126474;27;20605;-72
2021/05/24 03:04:50;;;;;;;1.90;1.70;;;12.50;99.90;;;;;;5129014;27;20570;-72
2021/05/24 03:07:16;;;;;;;2.80;1.47;;;12.30;99.90;;;;;;5129241;27;20479;-72
2021/05/24 03:09:43;;;;;;;1.60;0.97;;;12.40;99.90;;;;;;5124825;27;20447;-72
2021/05/24 03:12:10;;;;;;;1.60;0.90;;;12.30;99.90;;;;;;5128950;27;20867;-71
2021/05/24 03:14:36;;;;;;;0.97;0.73;;;12.40;99.90;;;;;;5130861;27;20483;-72
2021/05/24 03:17:03;;;;;;;1.30;1.00;;;12.30;99.90;;;;;;5130399;27;20482;-71
2021/05/24 03:19:29;;;;;;;1.50;0.87;;;12.40;99.90;;;;;;5128909;27;21110;-72
2021/05/24 03:21:56;;;;;;;1.73;1.10;;;12.30;99.90;;;;;;5124858;27;20473;-73
2021/05/24 03:24:23;;;;;;;13.07;1.53;;;12.30;99.90;;;;;;5128089;27;20474;-72
2021/05/24 03:26:49;;;;;;;1.40;0.80;;;12.30;99.90;;;;;;5130985;27;20800;-73
2021/05/24 03:29:16;;;;;;;1.30;1.20;;;12.40;99.90;;;;;;5124638;27;20475;-72
2021/05/24 03:31:42;;;;;;;1.60;1.07;;;12.50;99.90;;;;;;5128471;27;20956;-73
2021/05/24 03:34:09;;;;;;;5.43;2.10;;;12.60;99.90;;;;;;5130701;27;20896;-73
2021/05/24 03:36:35;;;;;;;1.10;0.80;;;12.60;99.90;;;;;;5131906;27;20638;-73
2021/05/24 03:39:04;;;;;;;1.10;0.93;;;12.60;99.90;;;;;;5131658;27;20454;-72
2021/05/24 03:41:30;;;;;;;2.50;1.30;;;12.70;99.90;;;;;;5133439;27;22947;-73
2021/05/24 03:43:56;;;;;;;1.30;1.00;;;12.60;99.90;;;;;;5128044;27;20526;-73
2021/05/24 03:46:23;;;;;;;3.23;1.47;;;12.70;99.90;;;;;;5130683;27;20599;-72
2021/05/24 03:48:49;;;;;;;1.63;1.10;;;12.80;99.90;;;;;;5128994;27;20520;-73
2021/05/24 03:51:16;;;;;;;1.30;1.00;;;12.80;99.90;;;;;;5130900;27;20536;-73
2021/05/24 03:53:42;;;;;;;1.10;0.90;;;12.80;99.90;;;;;;5130535;27;20455;-72
2021/05/24 03:56:12;;;;;;;1.50;1.27;;;12.90;99.90;;;;;;5135415;27;20494;-73
2021/05/24 03:58:38;;;;;;;1.20;1.00;;;12.90;99.90;;;;;;5131410;27;20521;-73
2021/05/24 04:01:05;;;;;;;1.20;0.80;;;13.00;99.90;;;;;;5131260;27;20984;-73
2021/05/24 04:03:31;;;;;;;1.70;1.10;;;13.00;99.90;;;;;;5130920;27;20932;-72
2021/05/24 04:06:00;;;;;;;1.10;0.80;;;13.10;99.90;;;;;;5121918;27;21027;-73
2021/05/24 04:08:33;;;;;;;2.23;1.10;;;13.20;99.90;;;;;;5127980;27;21263;-73
2021/05/24 04:11:00;;;;;;;1.10;0.80;;;13.10;99.90;;;;;;5131584;27;20451;-72
2021/05/24 04:13:28;;;;;;;1.83;1.13;;;13.20;99.90;;;;;;5130213;27;20494;-73
2021/05/24 04:15:57;;;;;;;1.17;0.93;;;13.30;99.90;;;;;;5128545;27;20480;-73
2021/05/24 04:18:25;;;;;;;1.20;1.00;;;13.20;99.90;;;;;;5128247;27;20505;-72
2021/05/24 04:20:51;;;;;;;1.60;1.00;;;13.20;99.90;;;;;;5135341;27;20538;-73
2021/05/24 04:23:19;;;;;;;2.07;0.90;;;13.20;99.90;;;;;;5130710;27;20429;-72
2021/05/24 04:25:46;;;;;;;1.40;0.93;;;13.40;99.90;;;;;;5128400;27;20543;-73
2021/05/24 04:28:13;;;;;;;1.10;0.77;;;13.50;99.90;;;;;;5125548;27;20471;-73
2021/05/24 04:30:40;;;;;;;1.10;0.80;;;13.70;99.90;;;;;;5128573;27;20491;-72
2021/05/24 04:33:07;;;;;;;1.00;0.77;;;13.70;99.90;;;;;;5126242;27;21226;-72
2021/05/24 04:35:33;;;;;;;1.43;0.87;;;13.80;99.90;;;;;;5132262;27;20557;-73
2021/05/24 04:38:00;;;;;;;1.80;1.20;;;13.80;99.90;;;;;;5130584;27;20472;-73
2021/05/24 04:40:26;;;;;;;1.60;0.90;;;13.80;99.90;;;;;;5129362;27;20651;-72
2021/05/24 04:42:54;;;;;;;1.67;0.97;;;13.80;99.90;;;;;;5129668;27;20456;-72
2021/05/24 04:45:21;;;;;;;1.10;0.80;;;13.80;99.90;;;;;;5131990;27;20475;-72
2021/05/24 04:47:48;;;;;;;1.00;0.70;;;13.90;99.90;;;;;;5132820;27;20478;-73
2021/05/24 04:50:15;;;;;;;4.17;1.10;;;13.80;99.90;;;;;;5124798;27;21046;-73
2021/05/24 04:52:41;;;;;;;1.50;0.90;;;13.90;99.90;;;;;;5125050;27;20831;-73
2021/05/24 04:55:09;;;;;;;1.20;0.90;;;14.00;99.90;;;;;;5130103;27;20548;-73
2021/05/24 04:57:36;;;;;;;3.20;1.00;;;14.10;99.90;;;;;;5130029;27;20449;-74
2021/05/24 05:00:05;;;;;;;2.80;0.90;;;14.20;99.90;;;;;;5129410;27;20455;-72
2021/05/24 05:02:31;;;;;;;1.83;1.10;;;14.20;99.90;;;;;;5132659;27;20497;-72
2021/05/24 05:04:58;;;;;;;1.93;1.23;;;14.20;99.90;;;;;;5124249;27;20479;-72
2021/05/24 05:07:27;;;;;;;10.70;1.10;;;14.50;99.90;;;;;;5127262;27;21062;-73
2021/05/24 05:09:53;;;;;;;1.63;1.10;;;15.10;99.90;;;;;;5129186;27;20459;-73
2021/05/24 05:12:20;;;;;;;1.57;1.03;;;15.60;99.90;;;;;;5124982;27;20467;-72
2021/05/24 05:14:47;;;;;;;1.10;0.80;;;15.90;99.90;;;;;;5129109;27;20930;-73
2021/05/24 05:17:13;;;;;;;1.37;1.10;;;15.50;99.90;;;;;;5126665;27;20466;-73
2021/05/24 05:19:40;;;;;;;1.10;0.80;;;15.70;99.90;;;;;;5121213;27;22556;-73
2021/05/24 05:22:07;;;;;;;1.10;0.80;;;15.50;99.90;;;;;;5121570;27;20621;-73
2021/05/24 05:24:34;;;;;;;1.00;0.70;;;15.30;99.90;;;;;;5120209;27;20876;-73
2021/05/24 05:27:00;;;;;;;3.90;1.50;;;15.50;99.90;;;;;;5126024;27;20479;-72
2021/05/24 05:29:27;;;;;;;2.13;1.30;;;15.60;99.90;;;;;;5126943;27;20581;-73
2021/05/24 05:31:53;;;;;;;1.40;0.90;;;16.00;99.90;;;;;;5128712;27;20470;-74
2021/05/24 05:34:20;;;;;;;2.17;1.30;;;16.10;99.90;;;;;;5130711;27;20511;-73
2021/05/24 05:36:46;;;;;;;2.13;1.00;;;16.30;99.90;;;;;;5133006;27;20814;-73
2021/05/24 05:39:14;;;;;;;1.87;0.80;;;16.30;99.90;;;;;;5127544;27;20487;-73
2021/05/24 05:41:40;;;;;;;1.70;1.03;;;16.40;99.90;;;;;;5129416;27;20456;-73
2021/05/24 05:44:07;;;;;;;1.87;1.10;;;15.90;99.90;;;;;;5126159;27;20503;-73
2021/05/24 05:46:34;;;;;;;1.10;0.70;;;15.60;99.90;;;;;;5127698;27;20902;-73
2021/05/24 05:49:01;;;;;;;1.10;0.93;;;15.60;99.90;;;;;;5125443;27;20456;-72
2021/05/24 05:51:27;;;;;;;1.10;0.80;;;15.40;99.90;;;;;;5125535;27;20498;-71
2021/05/24 05:53:55;;;;;;;1.23;0.90;;;15.70;99.90;;;;;;5125028;27;20459;-72
2021/05/24 05:56:23;;;;;;;1.50;0.80;;;15.90;99.90;;;;;;5127415;27;20528;-72
2021/05/24 05:58:49;;;;;;;1.20;0.80;;;15.60;99.90;;;;;;5125099;27;20452;-71
2021/05/24 06:01:16;;;;;;;1.43;0.90;;;15.50;99.90;;;;;;5128776;27;21025;-73
2021/05/24 06:03:42;;;;;;;2.70;0.90;;;15.90;99.90;;;;;;5129155;27;20526;-73
2021/05/24 06:06:09;;;;;;;1.57;0.80;;;16.50;99.90;;;;;;5127477;27;20558;-72
2021/05/24 06:08:36;;;;;;;1.30;0.90;;;17.10;99.90;;;;;;5126696;27;20767;-73
2021/05/24 06:11:02;;;;;;;1.20;0.80;;;17.30;99.90;;;;;;5127575;27;20563;-73
2021/05/24 06:13:29;;;;;;;3.83;1.00;;;17.80;99.90;;;;;;5125564;27;20532;-72
2021/05/24 06:15:56;;;;;;;1.20;0.80;;;18.00;99.90;;;;;;5126139;27;20498;-73
2021/05/24 06:18:22;;;;;;;1.00;0.70;;;18.60;99.90;;;;;;5132644;27;20463;-73
2021/05/24 06:20:49;;;;;;;1.20;0.90;;;18.80;99.90;;;;;;5132055;27;20509;-73
2021/05/24 06:23:16;;;;;;;1.67;0.70;;;18.50;99.90;;;;;;5122003;27;21020;-73
2021/05/24 06:25:44;;;;;;;1.20;0.80;;;18.90;99.90;;;;;;5123695;27;20585;-72
2021/05/24 06:28:11;;;;;;;1.30;0.90;;;18.40;99.90;;;;;;5126253;27;20588;-73
2021/05/24 06:30:39;;;;;;;1.77;0.83;;;18.70;99.90;;;;;;5127796;27;20486;-73
2021/05/24 06:33:06;;;;;;;2.17;1.00;;;19.10;99.90;;;;;;5124453;27;20572;-72
2021/05/24 06:35:33;;;;;;;1.87;1.10;;;19.20;99.90;;;;;;5125379;27;20569;-71
2021/05/24 06:37:59;;;;;;;1.50;1.03;;;19.50;99.90;;;;;;5120183;27;20455;-71
2021/05/24 06:40:26;;;;;;;1.50;0.90;;;20.00;99.90;;;;;;5123963;27;20452;-71
2021/05/24 06:42:53;;;;;;;1.40;1.00;;;19.80;99.90;;;;;;5121537;27;20509;-71
2021/05/24 06:45:19;;;;;;;2.80;1.37;;;19.50;99.90;;;;;;5122454;27;20555;-74
2021/05/24 06:47:47;;;;;;;1.87;0.87;;;19.80;99.90;;;;;;5123736;27;20485;-73
2021/05/24 06:50:15;;;;;;;8.10;2.70;;;19.60;99.90;;;;;;5119376;27;20451;-72
2021/05/24 06:52:41;;;;;;;1.50;1.03;;;20.00;99.90;;;;;;5120470;27;20626;-74
2021/05/24 06:55:09;;;;;;;1.20;1.00;;;20.00;99.90;;;;;;5118856;27;20547;-73
2021/05/24 06:57:35;;;;;;;2.57;0.90;;;19.50;99.90;;;;;;5125282;27;21282;-72
2021/05/24 07:00:02;;;;;;;1.20;0.90;;;19.60;99.90;;;;;;5126206;27;20490;-73
2021/05/24 07:02:29;;;;;;;1.17;0.73;;;20.40;99.90;;;;;;5123643;27;20547;-72
2021/05/24 07:04:56;;;;;;;1.80;0.93;;;20.30;98.30;;;;;;5124675;27;21078;-73
2021/05/24 07:07:23;;;;;;;1.20;0.93;;;19.90;98.70;;;;;;5133953;27;20483;-73
2021/05/24 07:09:49;;;;;;;1.43;1.30;;;20.10;97.30;;;;;;5135707;27;20455;-72
2021/05/24 07:12:15;;;;;;;1.83;1.07;;;19.80;99.30;;;;;;5133454;27;20574;-72
2021/05/24 07:14:45;;;;;;;1.10;0.80;;;20.40;97.70;;;;;;5133173;27;20495;-73
2021/05/24 07:17:12;;;;;;;3.77;1.20;;;20.60;97.20;;;;;;5135849;27;20507;-71
2021/05/24 07:19:38;;;;;;;1.17;0.93;;;20.30;96.60;;;;;;5133077;27;20916;-73
2021/05/24 07:22:06;;;;;;;1.67;1.00;;;20.50;95.50;;;;;;5137469;27;20494;-73
2021/05/24 07:24:32;;;;;;;3.07;0.97;;;21.00;96.00;;;;;;5134931;27;20489;-73
2021/05/24 07:27:00;;;;;;;1.93;1.13;;;21.60;95.20;;;;;;5135891;27;21026;-73
2021/05/24 07:29:26;;;;;;;1.20;0.77;;;21.70;93.00;;;;;;5136549;27;21010;-70
2021/05/24 07:31:53;;;;;;;2.07;1.23;;;21.50;93.30;;;;;;5132214;27;20484;-72
2021/05/24 07:34:19;;;;;;;3.23;0.90;;;21.60;93.10;;;;;;5135286;27;20557;-72
2021/05/24 07:36:46;;;;;;;2.00;1.30;;;21.60;92.50;;;;;;5136791;27;20503;-72
2021/05/24 07:39:13;;;;;;;1.10;0.80;;;21.50;93.30;;;;;;5136169;27;21052;-72
2021/05/24 07:41:40;;;;;;;1.00;0.70;;;21.70;93.00;;;;;;5133438;27;20501;-72
2021/05/24 07:44:06;;;;;;;4.20;2.27;;;21.50;92.70;;;;;;5135229;27;20510;-72
2021/05/24 07:46:33;;;;;;;2.63;1.10;;;21.20;93.50;;;;;;5134169;27;20486;-72
2021/05/24 07:49:00;;;;;;;2.07;1.07;;;21.40;94.40;;;;;;5132557;27;20801;-73
2021/05/24 07:51:26;;;;;;;1.50;0.83;;;21.90;93.70;;;;;;5136244;27;20971;-71
2021/05/24 07:53:53;;;;;;;1.50;1.00;;;22.70;91.90;;;;;;5125341;27;20484;-72
2021/05/24 07:56:21;;;;;;;2.40;1.57;;;22.50;91.10;;;;;;5120113;27;20585;-72
2021/05/24 07:58:47;;;;;;;1.93;0.90;;;23.10;90.80;;;;;;5125468;27;20908;-72
2021/05/24 08:01:14;;;;;;;1.20;0.80;;;23.30;90.00;;;;;;5121019;27;20820;-72
2021/05/24 08:03:40;;;;;;;1.70;0.90;;;23.40;90.10;;;;;;5116030;27;20858;-70
2021/05/24 08:06:07;;;;;;;1.20;0.90;;;23.20;89.10;;;;;;5122693;27;20558;-72
2021/05/24 08:08:33;;;;;;;1.20;0.80;;;23.70;89.20;;;;;;5119868;27;20501;-72
2021/05/24 08:11:00;;;;;;;2.47;1.00;;;24.50;85.10;;;;;;5122008;27;20479;-72
2021/05/24 08:13:29;;;;;;;1.60;1.00;;;24.00;82.70;;;;;;5127411;27;20601;-72
2021/05/24 08:15:55;;;;;;;3.73;1.00;;;23.40;86.10;;;;;;5123616;27;20485;-71
2021/05/24 08:18:23;;;;;;;1.00;0.70;;;24.00;86.10;;;;;;5123086;27;20455;-72
2021/05/24 08:20:50;;;;;;;1.47;1.27;;;24.00;79.70;;;;;;5123270;27;20459;-72
2021/05/24 08:23:17;;;;;;;1.10;0.70;;;23.60;81.90;;;;;;5118463;27;20488;-72
2021/05/24 08:25:43;;;;;;;3.20;1.00;;;23.20;82.40;;;;;;5127929;27;20521;-73
2021/05/24 08:28:10;;;;;;;1.10;0.90;;;22.40;82.80;;;;;;5121771;27;20486;-72
2021/05/24 08:30:37;;;;;;;1.73;0.90;;;22.50;83.60;;;;;;5125457;27;20467;-72
2021/05/24 08:33:04;;;;;;;1.40;0.87;;;22.40;84.20;;;;;;5117903;27;20792;-72
2021/05/24 08:35:30;;;;;;;1.33;0.83;;;21.90;85.40;;;;;;5121225;27;20512;-72
2021/05/24 08:37:57;;;;;;;1.40;0.87;;;21.60;86.10;;;;;;5123883;27;20533;-72
2021/05/24 08:40:23;;;;;;;1.40;1.00;;;21.80;86.50;;;;;;5125461;27;20535;-71
2021/05/24 08:42:50;;;;;;;1.20;0.80;;;22.50;82.70;;;;;;5129714;27;20464;-72
2021/05/24 08:45:17;;;;;;;1.00;0.67;;;22.30;84.20;;;;;;5122876;27;20646;-72
2021/05/24 08:47:44;;;;;;;1.77;0.90;;;22.70;80.30;;;;;;5123140;27;20455;-73
2021/05/24 08:50:13;;;;;;;1.50;1.20;;;23.60;79.60;;;;;;5126129;27;20464;-73
2021/05/24 08:52:39;;;;;;;11.03;1.17;;;24.20;76.40;;;;;;5127995;27;20966;-73
2021/05/24 08:55:07;;;;;;;1.50;1.13;;;23.80;76.20;;;;;;5126484;27;20554;-73
2021/05/24 08:57:37;;;;;;;1.57;0.90;;;22.90;75.70;;;;;;5124704;27;20459;-72
2021/05/24 09:00:05;;;;;;;1.10;0.80;;;21.70;78.00;;;;;;5126707;27;20520;-72
2021/05/24 09:02:32;;;;;;;1.20;0.90;;;21.20;79.70;;;;;;5123164;27;20471;-73
2021/05/24 09:05:04;;;;;;;1.30;1.00;;;21.00;81.20;;;;;;5123277;27;20490;-73
2021/05/24 09:07:36;;;;;;;1.60;1.43;;;20.60;80.20;;;;;;5136490;27;20502;-73
2021/05/24 09:10:04;;;;;;;1.70;1.10;;;20.30;82.80;;;;;;5124262;27;20454;-72
2021/05/24 09:12:32;;;;;;;2.70;1.43;;;19.90;83.40;;;;;;5122757;27;20472;-72
2021/05/24 09:15:00;;;;;;;1.40;1.10;;;19.60;85.60;;;;;;5124873;27;20472;-73
2021/05/24 09:17:41;;;;;;;6.20;1.77;;;19.70;86.70;;;;;;5131107;27;20439;-73
2021/05/24 09:20:31;;;;;;;1.40;1.00;;;19.80;87.70;;;;;;5136892;27;20435;-73
2021/05/24 09:23:22;;;;;;;9.13;1.93;;;19.50;88.30;;;;;;5132462;27;20451;-73
2021/05/24 09:25:51;;;;;;;1.10;0.80;;;19.60;90.00;;;;;;5120966;27;20562;-72
2021/05/24 09:28:36;;;;;;;1.13;0.70;;;19.70;89.60;;;;;;5125768;27;20491;-72
2021/05/24 09:31:06;;;;;;;2.63;0.90;;;19.70;90.30;;;;;;5122332;27;20444;-72
2021/05/24 09:33:33;;;;;;;1.30;0.80;;;19.60;90.60;;;;;;5125053;27;20471;-73
2021/05/24 09:36:01;;;;;;;1.30;1.00;;;19.30;90.70;;;;;;5125336;27;20485;-73
2021/05/24 09:38:35;;;;;;;1.40;1.00;;;19.00;91.50;;;;;;5126705;27;20447;-72
2021/05/24 09:41:02;;;;;;;1.10;0.80;;;19.10;92.30;;;;;;5127239;27;20540;-73
2021/05/24 09:43:35;;;;;;;1.90;1.10;;;19.10;92.50;;;;;;5119759;27;20464;-72
2021/05/24 09:46:23;;;;;;;1.20;1.00;;;19.10;92.50;;;;;;5128563;27;20468;-72
2021/05/24 09:48:51;;;;;;;2.03;0.80;;;19.10;92.90;;;;;;5118584;27;20509;-73
2021/05/24 09:51:21;;;;;;;1.20;0.90;;;19.40;93.40;;;;;;5124376;27;20466;-72
2021/05/24 09:54:02;;;;;;;1.50;1.00;;;19.50;92.70;;;;;;5120464;27;20491;-72
2021/05/24 09:56:30;;;;;;;2.13;0.80;;;19.50;92.60;;;;;;5128014;27;20503;-71
2021/05/24 09:59:05;;;;;;;1.30;0.90;;;19.40;92.10;;;;;;5131896;27;20440;-72
2021/05/24 10:01:36;;;;;;;1.40;1.00;;;19.30;92.90;;;;;;5128608;27;20462;-72
2021/05/24 10:04:04;;;;;;;1.20;0.90;;;19.20;91.70;;;;;;5124298;27;20486;-72
2021/05/24 10:06:32;;;;;;;1.50;1.00;;;19.20;92.30;;;;;;5120640;27;20454;-72
2021/05/24 10:08:59;;;;;;;2.57;1.47;;;19.00;92.00;;;;;;5124998;27;20463;-74
2021/05/24 10:11:26;;;;;;;1.80;1.00;;;19.00;92.10;;;;;;5124997;27;20451;-72
2021/05/24 10:13:53;;;;;;;2.40;1.00;;;19.10;92.80;;;;;;5117050;27;20470;-73
2021/05/24 10:16:20;;;;;;;5.83;1.13;;;19.50;92.10;;;;;;5120168;27;20459;-72
2021/05/24 10:18:47;;;;;;;1.30;1.03;;;20.30;93.10;;;;;;5117997;27;20503;-73
2021/05/24 10:21:13;;;;;;;1.10;0.90;;;20.70;91.20;;;;;;5126878;27;20464;-73
2021/05/24 10:23:41;;;;;;;1.47;0.90;;;20.50;90.30;;;;;;5122513;27;20470;-74
2021/05/24 10:26:10;;;;;;;1.63;0.90;;;21.00;91.00;;;;;;5120608;27;20876;-73
2021/05/24 10:28:38;;;;;;;2.00;1.30;;;21.30;90.50;;;;;;5123645;27;20526;-74
2021/05/24 10:31:05;;;;;;;1.10;0.70;;;21.00;90.20;;;;;;5116345;27;24000;-72
2021/05/24 10:33:39;;;;;;;2.03;1.03;;;20.50;90.00;;;;;;5124823;27;21339;-72
2021/05/24 10:36:20;;;;;;;1.27;1.10;;;20.40;90.60;;;;;;5121914;27;20463;-73
2021/05/24 10:39:03;;;;;;;1.30;0.77;;;20.50;90.60;;;;;;5130589;27;20434;-74
2021/05/24 10:41:43;;;;;;;2.67;0.93;;;20.30;87.20;;;;;;5129366;27;20756;-73
2021/05/24 10:44:11;;;;;;;2.17;0.80;;;20.20;86.80;;;;;;5123777;27;20522;-72
2021/05/24 10:46:38;;;;;;;2.90;1.13;;;20.40;86.80;;;;;;5123103;27;20866;-72
2021/05/24 10:49:20;;;;;;;1.80;1.20;;;20.30;89.20;;;;;;5131045;27;20490;-72
2021/05/24 10:52:10;;;;;;;2.70;1.00;;;20.60;88.90;;;;;;5137065;27;20837;-71
2021/05/24 10:54:41;;;;;;;1.10;0.83;;;19.70;90.20;;;;;;5135332;27;20471;-72
2021/05/24 10:57:12;;;;;;;1.60;1.00;;;19.40;91.40;;;;;;5136037;27;20920;-71
2021/05/24 10:59:55;;;;;;;1.30;0.80;;;19.20;92.30;;;;;;5133519;27;20524;-72
2021/05/24 11:02:30;;;;;;;1.20;0.90;;;19.00;92.00;;;;;;5132827;27;20477;-72
2021/05/24 11:04:58;;;;;;;1.63;1.13;;;18.50;95.80;;;;;;5134969;27;20554;-72
2021/05/24 11:07:31;;;;;;;3.73;1.10;;;18.30;96.70;;;;;;5138686;27;20770;-72
2021/05/24 11:10:21;;;;;;;1.10;0.80;;;18.30;96.50;;;;;;5127912;27;20971;-73
2021/05/24 11:12:50;;;;;;;1.30;1.20;;;18.10;98.10;;;;;;5122853;27;20688;-73
2021/05/24 11:15:17;;;;;;;1.20;0.80;;;17.70;99.90;;;;;;5121156;27;20474;-72
2021/05/24 11:18:17;;;;;;;1.20;0.90;;;17.30;99.90;;;;;;5115328;27;20520;-73
2021/05/24 11:20:49;;;;;;;1.67;0.90;;;17.20;99.90;;;;;;5128373;27;20610;-73
2021/05/24 11:23:32;;;;;;;1.23;0.93;;;17.20;99.90;;;;;;5129060;27;20443;-73
2021/05/24 11:26:28;;;;;;;2.57;0.97;;;17.30;99.90;;;;;;5128830;27;20995;-73
2021/05/24 11:28:59;;;;;;;1.13;0.77;;;17.70;99.90;;;;;;5128951;27;20443;-75
2021/05/24 11:31:29;;;;;;;2.33;1.17;;;17.80;99.90;;;;;;5127512;27;20456;-74
2021/05/24 11:33:57;;;;;;;1.40;1.20;;;17.20;99.90;;;;;;5118619;27;20452;-72
2021/05/24 11:36:51;;;;;;;2.27;1.10;;;17.00;99.90;;;;;;5113206;27;20486;-73
2021/05/24 11:39:20;;;;;;;1.30;1.07;;;17.20;99.90;;;;;;5125641;27;20440;-73
2021/05/24 11:41:53;;;;;;;2.43;1.20;;;17.50;99.90;;;;;;5125334;27;20854;-72
2021/05/24 11:44:21;;;;;;;1.10;0.90;;;17.80;99.90;;;;;;5125668;27;20548;-72
2021/05/24 11:46:50;;;;;;;1.10;0.90;;;17.60;99.90;;;;;;5118007;27;20859;-73
2021/05/24 11:49:18;;;;;;;2.93;1.00;;;17.50;99.90;;;;;;5124486;27;20446;-73
2021/05/24 11:51:46;;;;;;;2.13;1.03;;;17.30;99.90;;;;;;5125879;27;20450;-72
2021/05/24 11:54:14;;;;;;;1.17;0.93;;;17.50;99.90;;;;;;5122255;27;20895;-72
2021/05/24 11:56:44;;;;;;;3.33;1.10;;;17.80;99.90;;;;;;5118730;27;20495;-73
2021/05/24 11:59:12;;;;;;;2.40;1.03;;;18.00;99.90;;;;;;5123052;27;20873;-73
2021/05/24 12:01:41;;;;;;;1.00;0.70;;;18.00;99.90;;;;;;5122610;27;20439;-73
2021/05/24 12:04:10;;;;;;;2.40;1.00;;;17.90;99.90;;;;;;5116373;27;20926;-73
2021/05/24 12:06:41;;;;;;;1.20;0.90;;;17.80;99.90;;;;;;5119758;27;20472;-73
2021/05/24 12:09:08;;;;;;;1.30;1.00;;;17.80;99.90;;;;;;5122998;27;20901;-72
2021/05/24 12:11:34;;;;;;;2.27;1.10;;;17.80;99.90;;;;;;5127105;27;20446;-72
2021/05/24 12:14:03;;;;;;;1.10;0.83;;;17.70;99.90;;;;;;5125350;27;20460;-73
2021/05/24 12:16:32;;;;;;;1.20;1.00;;;17.70;99.90;;;;;;5125743;27;20475;-72
2021/05/24 12:19:01;;;;;;;3.30;1.10;;;17.40;99.90;;;;;;5126558;27;20483;-73
2021/05/24 12:21:36;;;;;;;4.50;2.90;;;17.50;99.90;;;;;;5120073;27;22541;-72
2021/05/24 12:24:04;;;;;;;2.00;1.10;;;17.40;99.90;;;;;;5116781;27;20466;-72
2021/05/24 12:26:30;;;;;;;1.60;1.50;;;17.50;99.90;;;;;;5124907;27;20582;-72
2021/05/24 12:28:58;;;;;;;1.20;0.90;;;17.50;99.90;;;;;;5121309;27;20505;-71
2021/05/24 12:31:26;;;;;;;2.00;1.10;;;17.20;99.90;;;;;;5122251;27;20565;-72
2021/05/24 12:33:55;;;;;;;1.30;1.00;;;17.10;99.90;;;;;;5124568;27;20479;-72
2021/05/24 12:36:23;;;;;;;4.50;1.37;;;17.00;99.90;;;;;;5128783;27;20504;-71
2021/05/24 12:38:51;;;;;;;2.60;1.13;;;16.60;99.90;;;;;;5123991;27;20444;-73
2021/05/24 12:41:20;;;;;;;3.70;1.33;;;16.60;99.90;;;;;;5123339;27;20542;-73
2021/05/24 12:43:54;;;;;;;1.30;1.00;;;16.60;99.90;;;;;;5126982;27;20467;-72
2021/05/24 12:46:22;;;;;;;1.20;0.90;;;16.70;99.90;;;;;;5122408;27;21087;-71
2021/05/24 12:48:51;;;;;;;1.70;0.90;;;16.50;99.90;;;;;;5123563;27;20462;-69
2021/05/24 12:51:22;;;;;;;2.07;1.13;;;16.20;99.90;;;;;;5121348;27;20451;-72